Clayton, Illinois
Current Conditions -  °F | °C
As of 4:54 AM on Sunday 21 Dec 2014 (Local Time) from KUIN Reporting Station
Overcast Overcast  
Wind Chill: 33°   Ceiling: 2000
Heat Index: 38°   Visibility: 9mi
Dew Point: 34°   Wind: 7mph
Humidity: 86%   Direction: 160°SSE
Pressure: 30.15"   Gusts: NA
Location:  40.03°N, 90.96°W
Report Text: KUIN 211054Z AUTO 16006KT 9SM OVC020 03/01 A3015 RMK AO2 SLP216 T00330011
Loading
Personal Weather Stations






























Interactive Weather Map New forecast layout! Learn more

10-Day Weather Forecast

Advertisements
Track Severe Weather on mobile